sensor_id;sensor_type;location;lat;lon;timestamp;P1;durP1;ratioP1;P2;durP2;ratioP2
21671;SDS011;10997;52.242;8.168;2022-10-04T00:04:03;7.97;;;4.38;;
21671;SDS011;10997;52.242;8.168;2022-10-04T00:09:11;8.80;;;4.70;;
21671;SDS011;10997;52.242;8.168;2022-10-04T00:14:37;8.27;;;4.18;;
21671;SDS011;10997;52.242;8.168;2022-10-04T00:19:45;9.38;;;4.72;;
21671;SDS011;10997;52.242;8.168;2022-10-04T00:30:21;7.60;;;4.60;;
21671;SDS011;10997;52.242;8.168;2022-10-04T00:40:30;8.30;;;4.88;;
21671;SDS011;10997;52.242;8.168;2022-10-04T00:45:38;12.90;;;5.30;;
21671;SDS011;10997;52.242;8.168;2022-10-04T01:01:43;8.50;;;4.63;;
21671;SDS011;10997;52.242;8.168;2022-10-04T01:06:49;10.23;;;5.78;;
21671;SDS011;10997;52.242;8.168;2022-10-04T01:12:10;10.63;;;5.57;;
21671;SDS011;10997;52.242;8.168;2022-10-04T01:17:20;9.00;;;5.18;;
21671;SDS011;10997;52.242;8.168;2022-10-04T01:22:31;16.15;;;6.68;;
21671;SDS011;10997;52.242;8.168;2022-10-04T01:27:40;13.95;;;6.40;;
21671;SDS011;10997;52.242;8.168;2022-10-04T01:32:42;8.18;;;5.10;;
21671;SDS011;10997;52.242;8.168;2022-10-04T01:37:43;8.60;;;4.95;;
21671;SDS011;10997;52.242;8.168;2022-10-04T01:42:44;8.23;;;5.00;;
21671;SDS011;10997;52.242;8.168;2022-10-04T01:47:51;7.82;;;4.72;;
21671;SDS011;10997;52.242;8.168;2022-10-04T01:53:21;8.73;;;5.03;;
21671;SDS011;10997;52.242;8.168;2022-10-04T01:58:29;11.85;;;5.18;;
21671;SDS011;10997;52.242;8.168;2022-10-04T02:03:34;9.10;;;5.40;;
21671;SDS011;10997;52.242;8.168;2022-10-04T02:08:43;7.88;;;5.72;;
21671;SDS011;10997;52.242;8.168;2022-10-04T02:13:50;8.65;;;5.50;;
21671;SDS011;10997;52.242;8.168;2022-10-04T02:18:53;11.32;;;5.32;;
21671;SDS011;10997;52.242;8.168;2022-10-04T02:23:54;9.82;;;4.80;;
21671;SDS011;10997;52.242;8.168;2022-10-04T02:28:56;9.35;;;5.28;;
21671;SDS011;10997;52.242;8.168;2022-10-04T02:33:57;11.50;;;5.63;;
21671;SDS011;10997;52.242;8.168;2022-10-04T02:39:03;12.10;;;5.78;;
21671;SDS011;10997;52.242;8.168;2022-10-04T03:00:30;14.65;;;6.55;;
21671;SDS011;10997;52.242;8.168;2022-10-04T03:05:31;13.63;;;7.00;;
21671;SDS011;10997;52.242;8.168;2022-10-04T03:10:32;13.77;;;7.03;;
21671;SDS011;10997;52.242;8.168;2022-10-04T03:15:34;17.52;;;8.80;;
21671;SDS011;10997;52.242;8.168;2022-10-04T03:20:36;17.52;;;9.27;;
21671;SDS011;10997;52.242;8.168;2022-10-04T03:30:54;17.17;;;9.53;;
21671;SDS011;10997;52.242;8.168;2022-10-04T03:35:57;17.65;;;8.80;;
21671;SDS011;10997;52.242;8.168;2022-10-04T03:41:00;17.75;;;9.48;;
21671;SDS011;10997;52.242;8.168;2022-10-04T03:46:02;21.92;;;10.75;;
21671;SDS011;10997;52.242;8.168;2022-10-04T03:51:05;27.02;;;12.73;;
21671;SDS011;10997;52.242;8.168;2022-10-04T04:07:10;25.55;;;13.20;;
21671;SDS011;10997;52.242;8.168;2022-10-04T04:12:19;24.88;;;11.52;;
21671;SDS011;10997;52.242;8.168;2022-10-04T04:22:25;26.42;;;11.82;;
21671;SDS011;10997;52.242;8.168;2022-10-04T04:27:31;28.60;;;15.02;;
21671;SDS011;10997;52.242;8.168;2022-10-04T04:32:37;24.38;;;14.05;;
21671;SDS011;10997;52.242;8.168;2022-10-04T04:37:40;27.88;;;14.40;;
21671;SDS011;10997;52.242;8.168;2022-10-04T04:42:41;23.23;;;13.75;;
21671;SDS011;10997;52.242;8.168;2022-10-04T04:47:47;23.73;;;13.77;;
21671;SDS011;10997;52.242;8.168;2022-10-04T04:52:53;24.30;;;13.02;;
21671;SDS011;10997;52.242;8.168;2022-10-04T04:58:05;19.77;;;11.45;;
21671;SDS011;10997;52.242;8.168;2022-10-04T05:03:17;24.20;;;11.75;;
21671;SDS011;10997;52.242;8.168;2022-10-04T05:08:23;21.70;;;11.15;;
21671;SDS011;10997;52.242;8.168;2022-10-04T05:19:19;19.25;;;10.43;;
21671;SDS011;10997;52.242;8.168;2022-10-04T05:29:31;22.73;;;10.55;;
21671;SDS011;10997;52.242;8.168;2022-10-04T05:34:38;19.45;;;10.95;;
21671;SDS011;10997;52.242;8.168;2022-10-04T05:44:52;23.95;;;12.75;;
21671;SDS011;10997;52.242;8.168;2022-10-04T05:49:54;22.27;;;13.63;;
21671;SDS011;10997;52.242;8.168;2022-10-04T06:00:20;23.08;;;12.80;;
21671;SDS011;10997;52.242;8.168;2022-10-04T06:05:47;26.55;;;13.27;;
21671;SDS011;10997;52.242;8.168;2022-10-04T06:22:16;23.30;;;13.88;;
21671;SDS011;10997;52.242;8.168;2022-10-04T06:53:53;20.48;;;12.68;;
21671;SDS011;10997;52.242;8.168;2022-10-04T07:09:22;21.63;;;10.77;;
21671;SDS011;10997;52.242;8.168;2022-10-04T07:14:27;18.60;;;11.00;;
21671;SDS011;10997;52.242;8.168;2022-10-04T07:19:36;20.40;;;10.67;;
21671;SDS011;10997;52.242;8.168;2022-10-04T07:30:03;17.90;;;9.95;;
21671;SDS011;10997;52.242;8.168;2022-10-04T07:40:27;20.90;;;8.95;;
21671;SDS011;10997;52.242;8.168;2022-10-04T07:45:33;11.15;;;7.43;;
21671;SDS011;10997;52.242;8.168;2022-10-04T07:50:40;17.27;;;7.82;;
21671;SDS011;10997;52.242;8.168;2022-10-04T07:56:16;11.95;;;6.65;;
21671;SDS011;10997;52.242;8.168;2022-10-04T08:06:35;14.20;;;6.78;;
21671;SDS011;10997;52.242;8.168;2022-10-04T08:12:16;13.15;;;6.47;;
21671;SDS011;10997;52.242;8.168;2022-10-04T08:28:24;12.43;;;5.80;;
21671;SDS011;10997;52.242;8.168;2022-10-04T08:34:16;10.52;;;5.22;;
21671;SDS011;10997;52.242;8.168;2022-10-04T09:38:54;8.50;;;4.10;;
21671;SDS011;10997;52.242;8.168;2022-10-04T10:05:55;12.77;;;5.40;;
21671;SDS011;10997;52.242;8.168;2022-10-04T10:11:22;11.20;;;5.18;;
21671;SDS011;10997;52.242;8.168;2022-10-04T10:28:37;11.75;;;5.65;;
21671;SDS011;10997;52.242;8.168;2022-10-04T11:16:18;10.48;;;4.93;;
21671;SDS011;10997;52.242;8.168;2022-10-04T11:27:42;8.38;;;4.50;;
21671;SDS011;10997;52.242;8.168;2022-10-04T12:10:26;11.43;;;5.13;;
21671;SDS011;10997;52.242;8.168;2022-10-04T12:15:36;8.95;;;4.43;;
21671;SDS011;10997;52.242;8.168;2022-10-04T12:26:00;11.85;;;5.05;;
21671;SDS011;10997;52.242;8.168;2022-10-04T13:03:35;9.05;;;4.30;;
21671;SDS011;10997;52.242;8.168;2022-10-04T13:14:43;9.90;;;3.55;;
21671;SDS011;10997;52.242;8.168;2022-10-04T13:31:04;9.10;;;3.35;;
21671;SDS011;10997;52.242;8.168;2022-10-04T13:58:00;7.88;;;4.10;;
21671;SDS011;10997;52.242;8.168;2022-10-04T14:35:15;10.38;;;3.90;;
21671;SDS011;10997;52.242;8.168;2022-10-04T14:40:36;9.23;;;3.80;;
21671;SDS011;10997;52.242;8.168;2022-10-04T15:12:45;10.07;;;3.63;;
21671;SDS011;10997;52.242;8.168;2022-10-04T15:18:08;6.45;;;3.30;;
21671;SDS011;10997;52.242;8.168;2022-10-04T15:23:50;7.28;;;3.60;;
21671;SDS011;10997;52.242;8.168;2022-10-04T15:29:04;8.60;;;3.63;;
21671;SDS011;10997;52.242;8.168;2022-10-04T15:35:07;7.22;;;3.55;;
21671;SDS011;10997;52.242;8.168;2022-10-04T15:45:34;8.90;;;3.35;;
21671;SDS011;10997;52.242;8.168;2022-10-04T16:06:49;6.43;;;3.22;;
21671;SDS011;10997;52.242;8.168;2022-10-04T16:11:58;13.13;;;3.90;;
21671;SDS011;10997;52.242;8.168;2022-10-04T16:22:39;8.20;;;3.40;;
21671;SDS011;10997;52.242;8.168;2022-10-04T16:33:01;5.97;;;3.20;;
21671;SDS011;10997;52.242;8.168;2022-10-04T17:09:48;20.48;;;14.05;;
21671;SDS011;10997;52.242;8.168;2022-10-04T17:36:33;12.85;;;8.18;;
21671;SDS011;10997;52.242;8.168;2022-10-04T17:46:58;9.00;;;6.70;;
21671;SDS011;10997;52.242;8.168;2022-10-04T17:52:01;9.90;;;5.90;;
21671;SDS011;10997;52.242;8.168;2022-10-04T17:57:28;13.82;;;6.90;;
21671;SDS011;10997;52.242;8.168;2022-10-04T18:13:18;13.85;;;7.90;;
21671;SDS011;10997;52.242;8.168;2022-10-04T18:18:28;16.00;;;7.97;;
21671;SDS011;10997;52.242;8.168;2022-10-04T18:23:36;11.55;;;7.35;;
21671;SDS011;10997;52.242;8.168;2022-10-04T18:28:38;12.05;;;6.97;;
21671;SDS011;10997;52.242;8.168;2022-10-04T18:38:40;15.05;;;7.80;;
21671;SDS011;10997;52.242;8.168;2022-10-04T18:43:49;10.52;;;6.40;;
21671;SDS011;10997;52.242;8.168;2022-10-04T18:49:10;8.80;;;5.93;;
21671;SDS011;10997;52.242;8.168;2022-10-04T18:54:27;9.20;;;5.03;;
21671;SDS011;10997;52.242;8.168;2022-10-04T18:59:34;11.65;;;6.40;;
21671;SDS011;10997;52.242;8.168;2022-10-04T19:05:14;12.18;;;7.10;;
21671;SDS011;10997;52.242;8.168;2022-10-04T19:10:32;14.20;;;7.55;;
21671;SDS011;10997;52.242;8.168;2022-10-04T19:16:02;21.95;;;10.23;;
21671;SDS011;10997;52.242;8.168;2022-10-04T19:26:14;14.85;;;9.13;;
21671;SDS011;10997;52.242;8.168;2022-10-04T19:31:25;24.10;;;10.63;;
21671;SDS011;10997;52.242;8.168;2022-10-04T19:41:54;21.92;;;10.05;;
21671;SDS011;10997;52.242;8.168;2022-10-04T19:52:24;33.15;;;16.50;;
21671;SDS011;10997;52.242;8.168;2022-10-04T19:57:36;29.85;;;14.27;;
21671;SDS011;10997;52.242;8.168;2022-10-04T20:02:46;22.87;;;11.87;;
21671;SDS011;10997;52.242;8.168;2022-10-04T20:07:48;18.75;;;10.98;;
21671;SDS011;10997;52.242;8.168;2022-10-04T20:28:41;11.13;;;6.75;;
21671;SDS011;10997;52.242;8.168;2022-10-04T20:33:42;11.40;;;6.47;;
21671;SDS011;10997;52.242;8.168;2022-10-04T20:38:51;10.00;;;6.97;;
21671;SDS011;10997;52.242;8.168;2022-10-04T20:44:00;12.50;;;6.95;;
21671;SDS011;10997;52.242;8.168;2022-10-04T20:49:01;10.10;;;7.55;;
21671;SDS011;10997;52.242;8.168;2022-10-04T20:54:03;14.38;;;7.55;;
21671;SDS011;10997;52.242;8.168;2022-10-04T20:59:11;12.82;;;7.88;;
21671;SDS011;10997;52.242;8.168;2022-10-04T21:04:18;12.90;;;7.75;;
21671;SDS011;10997;52.242;8.168;2022-10-04T21:09:31;12.77;;;7.85;;
21671;SDS011;10997;52.242;8.168;2022-10-04T21:14:34;11.90;;;7.47;;
21671;SDS011;10997;52.242;8.168;2022-10-04T21:29:52;11.38;;;7.03;;
21671;SDS011;10997;52.242;8.168;2022-10-04T21:34:53;16.88;;;7.75;;
21671;SDS011;10997;52.242;8.168;2022-10-04T21:39:53;14.05;;;7.57;;
21671;SDS011;10997;52.242;8.168;2022-10-04T21:44:55;14.75;;;7.55;;
21671;SDS011;10997;52.242;8.168;2022-10-04T21:49:55;13.18;;;8.27;;
21671;SDS011;10997;52.242;8.168;2022-10-04T21:54:56;12.50;;;7.68;;
21671;SDS011;10997;52.242;8.168;2022-10-04T21:59:57;12.07;;;8.20;;
21671;SDS011;10997;52.242;8.168;2022-10-04T22:04:57;14.52;;;8.68;;
21671;SDS011;10997;52.242;8.168;2022-10-04T22:09:58;18.27;;;9.50;;
21671;SDS011;10997;52.242;8.168;2022-10-04T22:14:59;15.10;;;8.80;;
21671;SDS011;10997;52.242;8.168;2022-10-04T22:20:00;14.60;;;8.85;;
21671;SDS011;10997;52.242;8.168;2022-10-04T22:25:00;16.55;;;9.27;;
21671;SDS011;10997;52.242;8.168;2022-10-04T22:30:01;12.98;;;9.52;;
21671;SDS011;10997;52.242;8.168;2022-10-04T22:35:09;14.68;;;8.95;;
21671;SDS011;10997;52.242;8.168;2022-10-04T22:40:17;17.17;;;9.60;;
21671;SDS011;10997;52.242;8.168;2022-10-04T22:45:21;16.88;;;10.20;;
21671;SDS011;10997;52.242;8.168;2022-10-04T22:50:33;16.42;;;9.50;;
21671;SDS011;10997;52.242;8.168;2022-10-04T22:55:35;15.02;;;9.88;;
21671;SDS011;10997;52.242;8.168;2022-10-04T23:00:36;14.40;;;9.70;;
21671;SDS011;10997;52.242;8.168;2022-10-04T23:05:36;12.88;;;9.38;;
21671;SDS011;10997;52.242;8.168;2022-10-04T23:10:37;16.05;;;9.63;;
21671;SDS011;10997;52.242;8.168;2022-10-04T23:15:37;15.43;;;9.88;;
21671;SDS011;10997;52.242;8.168;2022-10-04T23:20:38;15.85;;;10.45;;
21671;SDS011;10997;52.242;8.168;2022-10-04T23:25:39;15.45;;;10.25;;
21671;SDS011;10997;52.242;8.168;2022-10-04T23:30:43;15.82;;;10.63;;
21671;SDS011;10997;52.242;8.168;2022-10-04T23:35:44;17.02;;;10.93;;
21671;SDS011;10997;52.242;8.168;2022-10-04T23:40:46;15.52;;;10.82;;
21671;SDS011;10997;52.242;8.168;2022-10-04T23:45:47;15.88;;;11.18;;
21671;SDS011;10997;52.242;8.168;2022-10-04T23:50:47;17.17;;;10.55;;
21671;SDS011;10997;52.242;8.168;2022-10-04T23:55:49;18.58;;;11.20;;
